Time;durP1;ratioP1;P1;durP2;ratioP2;P2;SDS_P1;SDS_P2;PMS_P1;PMS_P2;Temp;Humidity;BMP_temperature;BMP_pressure;BME280_temperature;BME280_humidity;BME280_pressure;Samples;Min_cycle;Max_cycle;Signal;HPM_P1;HPM_P2
2022/02/24 00:00:10;;;;;;;4.38;2.72;;;;;;;3.96;82.39;96980.78;2072942;28;20229;-76
2022/02/24 00:01:11;;;;;;;4.50;2.63;;;;;;;3.91;81.54;96957.59;2073911;28;20194;-75
2022/02/24 00:02:13;;;;;;;5.47;2.67;;;;;;;3.91;82.62;96982.69;2072193;28;20201;-76
2022/02/24 00:03:15;;;;;;;6.18;2.85;;;;;;;3.87;82.56;96970.72;2074246;28;20236;-76
2022/02/24 00:04:16;;;;;;;5.95;2.70;;;;;;;3.81;82.44;96955.41;2073798;28;20668;-76
2022/02/24 00:05:19;;;;;;;5.32;2.75;;;;;;;3.88;82.46;96968.09;2071506;28;20699;-75
2022/02/24 00:06:22;;;;;;;3.90;2.55;;;;;;;3.95;82.41;96979.91;2072887;28;20222;-75
2022/02/24 00:07:24;;;;;;;4.85;2.38;;;;;;;3.83;81.98;96951.84;2073456;28;20214;-76
2022/02/24 00:08:26;;;;;;;3.55;2.10;;;;;;;3.89;82.55;96968.94;2065568;28;20210;-76
2022/02/24 00:09:27;;;;;;;6.30;2.00;;;;;;;3.86;82.73;96969.91;2070546;28;20193;-76
2022/02/24 00:10:29;;;;;;;6.85;2.47;;;;;;;3.86;82.59;96967.31;2071735;28;20201;-76
2022/02/24 00:11:32;;;;;;;6.53;2.40;;;;;;;3.78;82.46;96945.97;2072201;28;20190;-76
2022/02/24 00:12:34;;;;;;;5.15;2.90;;;;;;;4.02;82.32;96972.78;2073855;28;20212;-76
2022/02/24 00:13:38;;;;;;;4.35;2.20;;;;;;;4.01;81.92;96973.66;2074174;28;20510;-76
2022/02/24 00:14:39;;;;;;;5.78;2.65;;;;;;;3.98;81.90;96966.00;2071777;28;20762;-76
2022/02/24 00:15:44;;;;;;;4.72;2.00;;;;;;;4.08;81.86;96974.28;2073064;28;20610;-75
2022/02/24 00:16:45;;;;;;;5.40;2.45;;;;;;;3.96;81.66;96966.06;2074008;28;20206;-75
2022/02/24 00:17:52;;;;;;;2.30;2.00;;;;;;;3.98;82.00;96968.59;2074170;28;20198;-76
2022/02/24 00:18:54;;;;;;;6.75;2.58;;;;;;;3.94;82.15;96967.88;2073601;28;20263;-75
2022/02/24 00:19:56;;;;;;;7.95;3.30;;;;;;;3.84;82.57;96955.28;2073467;28;20225;-76
2022/02/24 00:20:57;;;;;;;3.60;2.72;;;;;;;3.92;82.43;96953.25;2070719;28;20201;-76
2022/02/24 00:21:59;;;;;;;4.72;2.28;;;;;;;3.94;82.61;96964.44;2063646;28;20235;-76
2022/02/24 00:23:00;;;;;;;4.82;2.55;;;;;;;3.86;83.01;96963.84;2073050;28;20202;-76
2022/02/24 00:24:02;;;;;;;7.32;2.20;;;;;;;3.94;82.60;96969.63;2074005;28;20201;-76
2022/02/24 00:25:05;;;;;;;3.90;2.45;;;;;;;3.81;82.92;96950.22;2075214;28;20233;-75
2022/02/24 00:26:06;;;;;;;3.08;1.90;;;;;;;3.93;82.92;96967.91;2076695;28;20205;-76
2022/02/24 00:27:08;;;;;;;5.78;2.20;;;;;;;3.90;82.56;96957.66;2073368;28;20202;-76
2022/02/24 00:28:10;;;;;;;5.38;2.20;;;;;;;3.97;82.27;96964.31;2071301;28;20650;-75
2022/02/24 00:29:11;;;;;;;5.55;2.92;;;;;;;3.87;82.39;96956.03;2072492;28;20193;-75
2022/02/24 00:30:13;;;;;;;8.20;2.85;;;;;;;3.86;82.29;96943.13;2073346;28;20635;-75
2022/02/24 00:31:15;;;;;;;2.78;1.80;;;;;;;3.98;82.34;96966.00;2072143;28;20202;-76
2022/02/24 00:32:17;;;;;;;2.83;1.75;;;;;;;4.06;82.42;96963.97;2072821;28;20350;-76
2022/02/24 00:33:18;;;;;;;6.45;2.15;;;;;;;3.99;82.55;96959.91;2072724;28;20201;-76
2022/02/24 00:34:23;;;;;;;7.75;2.63;;;;;;;3.84;83.76;96961.34;2073652;28;20194;-76
2022/02/24 00:35:24;;;;;;;3.97;2.50;;;;;;;3.75;84.49;96967.69;2073712;28;20657;-76
2022/02/24 00:36:26;;;;;;;7.63;2.80;;;;;;;3.86;84.18;96963.84;2072639;28;20656;-76
2022/02/24 00:37:28;;;;;;;6.90;3.00;;;;;;;3.69;84.20;96935.97;2073614;28;20224;-76
2022/02/24 00:38:29;;;;;;;6.38;3.00;;;;;;;3.90;84.12;96968.00;2066512;28;20205;-76
2022/02/24 00:39:31;;;;;;;5.00;2.60;;;;;;;3.89;84.13;96962.00;2072548;28;20212;-76
2022/02/24 00:40:33;;;;;;;7.63;3.38;;;;;;;3.93;84.21;96965.31;2073952;28;20220;-76
2022/02/24 00:41:34;;;;;;;10.85;3.05;;;;;;;3.97;83.90;96972.09;2074027;28;20206;-76
2022/02/24 00:42:36;;;;;;;4.75;2.85;;;;;;;3.88;83.98;96969.81;2071145;28;20209;-76
2022/02/24 00:43:37;;;;;;;6.20;2.80;;;;;;;3.74;84.27;96942.69;2072281;28;20208;-76
2022/02/24 00:44:39;;;;;;;5.95;2.90;;;;;;;3.90;84.30;96965.41;2072730;28;20222;-76
2022/02/24 00:45:41;;;;;;;13.57;3.90;;;;;;;3.89;84.14;96967.19;2073033;28;20197;-76
2022/02/24 00:46:42;;;;;;;4.88;3.00;;;;;;;3.88;84.24;96962.03;2074123;28;20194;-76
2022/02/24 00:47:46;;;;;;;5.85;2.95;;;;;;;4.04;83.70;96978.75;2073885;28;20201;-76
2022/02/24 00:48:48;;;;;;;6.10;2.47;;;;;;;3.80;83.67;96961.47;2073444;28;20197;-76
2022/02/24 00:49:49;;;;;;;4.88;2.47;;;;;;;3.82;83.60;96960.50;2064929;28;20233;-76
2022/02/24 00:50:51;;;;;;;5.22;2.40;;;;;;;3.97;83.24;96978.09;2063070;28;20202;-76
2022/02/24 00:51:52;;;;;;;4.97;2.80;;;;;;;3.96;83.64;96981.63;2071466;28;20265;-76
2022/02/24 00:52:56;;;;;;;4.20;2.30;;;;;;;3.97;83.77;96964.31;2072605;28;20210;-76
2022/02/24 00:53:58;;;;;;;4.55;2.50;;;;;;;3.87;83.41;96947.41;2072609;28;20194;-76
2022/02/24 00:54:59;;;;;;;5.40;2.42;;;;;;;4.00;83.54;96968.53;2072346;28;20233;-76
2022/02/24 00:56:01;;;;;;;4.60;2.30;;;;;;;3.94;83.32;96967.03;2070233;28;20201;-76
2022/02/24 00:57:03;;;;;;;8.10;2.42;;;;;;;4.12;82.30;96966.34;2069495;28;20202;-75
2022/02/24 00:58:05;;;;;;;5.55;2.10;;;;;;;3.66;82.88;96936.91;2072395;28;20704;-76
2022/02/24 00:59:06;;;;;;;5.50;2.53;;;;;;;3.66;83.01;96936.91;2070371;28;20248;-76
2022/02/24 01:00:08;;;;;;;5.90;2.25;;;;;;;3.58;83.47;96944.09;2072424;28;20236;-76
2022/02/24 01:01:10;;;;;;;4.30;2.47;;;;;;;3.31;84.45;96954.56;2070840;28;20206;-76
2022/02/24 01:02:12;;;;;;;4.18;2.35;;;;;;;3.29;85.17;96952.88;2072463;28;20198;-76
2022/02/24 01:03:14;;;;;;;4.95;2.38;;;;;;;3.15;85.28;96925.72;2072783;28;20243;-75
2022/02/24 01:04:16;;;;;;;4.28;2.70;;;;;;;3.30;86.08;96950.25;2072077;28;20213;-76
2022/02/24 01:05:17;;;;;;;7.10;2.67;;;;;;;3.35;85.24;96948.38;2072755;28;20723;-76
2022/02/24 01:06:19;;;;;;;4.13;2.70;;;;;;;3.59;84.56;96945.81;2071954;28;20198;-76
2022/02/24 01:07:21;;;;;;;3.15;2.15;;;;;;;3.55;84.37;96937.31;2071413;28;20681;-76
2022/02/24 01:08:22;;;;;;;6.25;2.97;;;;;;;3.70;84.27;96948.00;2069125;28;20208;-76
2022/02/24 01:09:24;;;;;;;5.53;2.53;;;;;;;3.75;83.97;96946.13;2069716;28;20212;-76
2022/02/24 01:10:25;;;;;;;2.67;1.70;;;;;;;3.49;84.32;96919.41;2072121;28;20198;-76
2022/02/24 01:11:27;;;;;;;8.93;2.65;;;;;;;3.68;84.12;96942.88;2072639;28;20213;-76
2022/02/24 01:12:28;;;;;;;4.75;2.35;;;;;;;3.69;84.71;96939.41;2072733;28;20194;-76
2022/02/24 01:13:30;;;;;;;4.88;2.30;;;;;;;3.64;84.47;96928.34;2072437;28;20198;-76
2022/02/24 01:14:32;;;;;;;5.13;2.20;;;;;;;3.72;84.35;96933.25;2072208;28;20656;-76
2022/02/24 01:15:38;;;;;;;5.05;2.97;;;;;;;3.66;84.55;96926.53;2072697;28;20193;-76
2022/02/24 01:16:40;;;;;;;10.52;3.67;;;;;;;3.84;84.31;96939.72;2071245;28;20285;-76
2022/02/24 01:17:43;;;;;;;3.78;2.28;;;;;;;3.89;83.97;96937.84;2071760;28;20229;-76
2022/02/24 01:18:45;;;;;;;3.92;2.50;;;;;;;3.94;83.86;96941.13;2072115;28;20654;-76
2022/02/24 01:19:48;;;;;;;6.70;2.20;;;;;;;3.86;83.96;96948.28;2071611;28;20223;-77
2022/02/24 01:20:49;;;;;;;3.58;2.40;;;;;;;3.76;83.83;96933.09;2071890;28;20201;-76
2022/02/24 01:21:51;;;;;;;4.97;2.70;;;;;;;3.73;84.39;96934.97;2071300;28;20214;-77
2022/02/24 01:22:55;;;;;;;3.80;2.20;;;;;;;3.73;84.13;96938.38;2070804;28;20229;-77
2022/02/24 01:23:57;;;;;;;4.30;1.83;;;;;;;3.66;83.65;96903.22;2072437;28;20220;-77
2022/02/24 01:24:59;;;;;;;4.60;2.28;;;;;;;3.69;83.46;96900.53;2072024;28;20230;-77
2022/02/24 01:26:01;;;;;;;4.28;2.25;;;;;;;3.85;83.35;96931.06;2072573;28;20209;-76
2022/02/24 01:27:03;;;;;;;6.43;2.20;;;;;;;3.81;83.58;96935.53;2071630;28;20669;-77
2022/02/24 01:28:05;;;;;;;4.40;2.50;;;;;;;3.68;84.01;96906.63;2070688;28;20209;-77
2022/02/24 01:29:06;;;;;;;4.53;2.90;;;;;;;3.80;83.75;96922.63;2071008;28;20217;-77
2022/02/24 01:30:08;;;;;;;2.00;1.52;;;;;;;3.83;83.69;96932.88;2069596;28;20277;-77
2022/02/24 01:31:10;;;;;;;3.38;1.88;;;;;;;3.86;83.32;96931.03;2070586;28;20205;-77
2022/02/24 01:32:12;;;;;;;4.85;1.73;;;;;;;3.81;83.16;96916.56;2071751;28;20825;-77
2022/02/24 01:33:13;;;;;;;4.50;2.10;;;;;;;3.97;83.12;96922.84;2071740;28;20205;-77
2022/02/24 01:34:17;;;;;;;4.20;2.03;;;;;;;4.00;83.47;96930.50;2071920;28;20221;-75
2022/02/24 01:35:18;;;;;;;8.80;1.90;;;;;;;4.04;82.97;96918.25;2072402;28;20201;-76
2022/02/24 01:36:20;;;;;;;6.72;1.90;;;;;;;3.88;82.70;96886.91;2071954;28;20689;-76
2022/02/24 01:37:22;;;;;;;3.08;1.80;;;;;;;4.05;82.43;96922.56;2071938;28;20202;-76
2022/02/24 01:38:23;;;;;;;5.82;2.22;;;;;;;3.91;82.36;96902.34;2072543;28;20198;-76
2022/02/24 01:39:24;;;;;;;5.10;2.13;;;;;;;3.85;82.61;96899.97;2072221;28;20212;-76
2022/02/24 01:40:26;;;;;;;2.92;2.30;;;;;;;3.86;83.08;96907.72;2071728;28;20198;-76
2022/02/24 01:41:28;;;;;;;4.53;2.35;;;;;;;3.85;83.22;96916.38;2071726;28;20288;-76
2022/02/24 01:42:29;;;;;;;4.32;2.20;;;;;;;3.73;83.51;96894.34;2071820;28;20668;-76
2022/02/24 01:43:31;;;;;;;5.15;1.75;;;;;;;3.89;83.02;96910.16;2070222;28;20557;-76
2022/02/24 01:44:44;;;;;;;4.90;1.90;;;;;;;3.90;82.86;96896.31;2070458;28;20201;-76
2022/02/24 01:45:47;;;;;;;2.35;1.50;;;;;;;3.93;82.83;96909.16;2070860;28;20198;-76
2022/02/24 01:46:49;;;;;;;9.18;2.33;;;;;;;3.98;82.73;96901.22;2071145;28;20194;-77
2022/02/24 01:47:50;;;;;;;2.95;2.03;;;;;;;3.96;82.74;96906.44;2072436;28;20227;-76
2022/02/24 01:48:52;;;;;;;3.45;1.40;;;;;;;3.93;82.58;96900.53;2071627;28;20224;-76
2022/02/24 01:49:53;;;;;;;3.33;1.27;;;;;;;3.90;82.92;96898.91;2071418;28;20597;-76
2022/02/24 01:50:55;;;;;;;6.15;1.75;;;;;;;3.89;83.22;96906.75;2072497;28;20205;-76
2022/02/24 01:51:57;;;;;;;4.25;1.75;;;;;;;3.87;83.29;96899.00;2071719;28;20704;-76
2022/02/24 01:52:58;;;;;;;3.63;1.77;;;;;;;3.73;83.37;96867.59;2071691;28;20193;-77
2022/02/24 01:54:00;;;;;;;2.75;1.45;;;;;;;3.81;83.12;96872.50;2072339;28;20194;-76
2022/02/24 01:55:04;;;;;;;3.50;1.75;;;;;;;3.51;83.24;96834.72;2071683;28;20592;-76
2022/02/24 01:56:06;;;;;;;4.70;1.80;;;;;;;3.94;83.56;96884.94;2070753;28;20236;-76
2022/02/24 01:57:08;;;;;;;8.63;2.10;;;;;;;3.73;83.49;96871.03;2071997;28;20197;-76
2022/02/24 01:58:11;;;;;;;6.85;1.92;;;;;;;3.78;83.76;96877.78;2072238;28;20699;-76
2022/02/24 01:59:13;;;;;;;3.55;1.83;;;;;;;3.70;84.44;96871.13;2071665;28;20194;-76
2022/02/24 02:00:15;;;;;;;3.65;1.55;;;;;;;3.90;84.10;96880.78;2071020;28;20221;-76
2022/02/24 02:01:17;;;;;;;6.72;2.05;;;;;;;3.87;84.20;96874.84;2071564;28;20217;-76
2022/02/24 02:02:19;;;;;;;3.70;1.48;;;;;;;3.91;84.39;96877.25;2071830;28;20193;-76
2022/02/24 02:03:21;;;;;;;8.30;1.70;;;;;;;3.89;84.19;96867.88;2071586;28;20340;-76
2022/02/24 02:04:23;;;;;;;3.58;1.88;;;;;;;3.89;84.42;96854.91;2063106;28;20191;-76
2022/02/24 02:05:25;;;;;;;4.00;1.80;;;;;;;3.78;84.09;96841.50;2068674;28;20236;-76
2022/02/24 02:06:26;;;;;;;3.78;1.80;;;;;;;3.99;84.24;96866.59;2071426;28;20550;-76
2022/02/24 02:07:28;;;;;;;2.97;1.70;;;;;;;3.97;84.11;96865.81;2071633;28;20346;-76
2022/02/24 02:08:30;;;;;;;4.15;2.30;;;;;;;4.01;84.36;96879.53;2070650;28;20197;-76
2022/02/24 02:09:32;;;;;;;3.35;1.60;;;;;;;3.99;84.38;96866.59;2072239;28;20202;-76
2022/02/24 02:10:34;;;;;;;5.53;2.08;;;;;;;3.95;84.34;96854.69;2071761;28;20714;-77
2022/02/24 02:11:35;;;;;;;5.25;2.20;;;;;;;3.97;84.42;96852.88;2071528;28;20221;-76
2022/02/24 02:12:48;;;;;;;2.17;1.98;;;;;;;4.08;84.14;96863.69;2070138;28;20386;-77
2022/02/24 02:13:50;;;;;;;4.53;2.15;;;;;;;4.09;83.77;96856.72;2071886;28;20205;-77
2022/02/24 02:14:51;;;;;;;3.47;1.85;;;;;;;4.09;83.66;96861.91;2071832;28;20230;-76
2022/02/24 02:15:53;;;;;;;2.90;2.00;;;;;;;4.09;83.92;96867.94;2072257;28;20189;-76
2022/02/24 02:16:56;;;;;;;3.92;1.90;;;;;;;4.14;83.80;96860.00;2071176;28;20201;-77
2022/02/24 02:17:57;;;;;;;2.70;1.50;;;;;;;3.96;83.84;96820.94;2071521;28;20668;-77
2022/02/24 02:18:59;;;;;;;3.28;1.85;;;;;;;4.20;83.64;96851.97;2071541;28;20213;-77
2022/02/24 02:20:00;;;;;;;4.40;1.77;;;;;;;3.99;83.80;96827.72;2071141;28;20253;-77
2022/02/24 02:21:02;;;;;;;2.53;1.63;;;;;;;4.21;83.72;96852.81;2072041;28;20209;-76
2022/02/24 02:22:04;;;;;;;5.30;2.30;;;;;;;4.07;83.51;96824.84;2066777;28;20237;-76
2022/02/24 02:23:10;;;;;;;3.35;1.70;;;;;;;4.03;83.68;96812.91;2070894;28;20240;-76
2022/02/24 02:24:13;;;;;;;3.60;1.88;;;;;;;4.13;83.80;96843.59;2072025;28;20212;-76
2022/02/24 02:25:19;;;;;;;3.15;1.60;;;;;;;4.18;84.07;96840.00;2071410;28;20657;-76
2022/02/24 02:26:21;;;;;;;2.72;1.70;;;;;;;3.99;84.15;96816.53;2071488;28;20809;-76
2022/02/24 02:27:23;;;;;;;12.25;1.73;;;;;;;4.03;83.69;96815.50;2072105;28;20208;-77
2022/02/24 02:28:25;;;;;;;2.35;1.48;;;;;;;4.05;83.61;96817.13;2071488;28;20224;-77
2022/02/24 02:29:26;;;;;;;3.85;1.33;;;;;;;4.27;83.68;96837.00;2071476;28;20201;-76
2022/02/24 02:30:28;;;;;;;5.93;1.70;;;;;;;4.22;83.47;96833.78;2073323;28;20202;-77
2022/02/24 02:31:30;;;;;;;3.17;1.95;;;;;;;4.10;83.36;96822.97;2071322;28;20194;-77
2022/02/24 02:32:32;;;;;;;4.82;1.95;;;;;;;4.22;83.60;96838.97;2071128;28;20194;-77
2022/02/24 02:33:33;;;;;;;4.22;1.70;;;;;;;4.14;83.52;96813.34;2071505;28;20201;-77
2022/02/24 02:34:34;;;;;;;3.55;1.90;;;;;;;4.26;83.44;96830.16;2071275;28;20228;-77
2022/02/24 02:35:37;;;;;;;2.72;1.67;;;;;;;4.26;83.01;96827.56;2071480;28;20212;-77
2022/02/24 02:36:39;;;;;;;3.03;1.30;;;;;;;4.16;83.34;96833.09;2071410;28;20208;-76
2022/02/24 02:37:41;;;;;;;2.67;1.50;;;;;;;4.27;83.42;96831.84;2071978;28;20198;-77
2022/02/24 02:38:42;;;;;;;2.83;1.55;;;;;;;4.26;83.41;96833.59;2072590;28;20193;-76
2022/02/24 02:39:44;;;;;;;4.47;1.85;;;;;;;4.22;83.29;96823.41;2071905;28;20252;-76
2022/02/24 02:40:45;;;;;;;7.95;2.13;;;;;;;4.19;83.74;96831.28;2073058;28;20209;-76
2022/02/24 02:41:47;;;;;;;6.28;1.50;;;;;;;4.15;83.51;96826.22;2069912;28;20217;-76
2022/02/24 02:42:50;;;;;;;5.32;2.10;;;;;;;4.02;83.75;96826.75;2071040;28;20531;-76
2022/02/24 02:43:51;;;;;;;2.95;1.30;;;;;;;4.13;82.60;96815.06;2072231;28;20201;-76
2022/02/24 02:44:53;;;;;;;3.00;1.40;;;;;;;4.11;82.84;96829.00;2071429;28;20225;-76
2022/02/24 02:45:55;;;;;;;3.08;1.70;;;;;;;4.14;82.92;96819.38;2071317;28;20197;-77
2022/02/24 02:46:57;;;;;;;4.38;1.30;;;;;;;4.23;82.53;96825.09;2071428;28;20205;-77
2022/02/24 02:48:00;;;;;;;3.25;2.00;;;;;;;4.19;83.24;96800.19;2072138;28;20194;-77
2022/02/24 02:49:04;;;;;;;2.50;1.70;;;;;;;4.21;82.62;96822.53;2071010;28;20198;-78
2022/02/24 02:50:06;;;;;;;3.65;1.55;;;;;;;4.15;82.46;96800.28;2065945;28;20229;-77
2022/02/24 02:51:12;;;;;;;4.50;1.77;;;;;;;4.28;82.33;96785.09;2067649;28;20703;-77
2022/02/24 02:52:14;;;;;;;4.93;1.60;;;;;;;4.51;82.52;96814.47;2071429;28;20201;-77
2022/02/24 02:53:15;;;;;;;3.35;1.20;;;;;;;4.41;82.74;96808.81;2071828;28;20575;-77
2022/02/24 02:54:20;;;;;;;4.30;2.03;;;;;;;4.30;82.92;96791.06;2071455;28;20198;-77
2022/02/24 02:55:21;;;;;;;2.28;1.25;;;;;;;4.21;83.10;96782.81;2071410;28;20673;-77
2022/02/24 02:56:23;;;;;;;4.95;1.60;;;;;;;4.30;83.16;96798.84;2069568;28;20233;-77
2022/02/24 02:57:25;;;;;;;4.78;1.90;;;;;;;4.24;82.70;96801.69;2071848;28;20254;-77
2022/02/24 02:58:26;;;;;;;2.42;1.20;;;;;;;4.25;82.28;96781.78;2074298;28;20202;-77
2022/02/24 02:59:28;;;;;;;1.40;0.98;;;;;;;4.24;82.30;96774.94;2071746;28;20209;-77
2022/02/24 03:00:29;;;;;;;2.40;1.50;;;;;;;4.40;82.35;96803.66;2069673;28;20705;-77
2022/02/24 03:01:31;;;;;;;3.72;1.80;;;;;;;4.46;82.37;96804.25;2071669;28;20198;-77
2022/02/24 03:02:33;;;;;;;2.72;2.08;;;;;;;4.19;82.98;96784.63;2072066;28;20198;-77
2022/02/24 03:03:35;;;;;;;2.92;1.52;;;;;;;4.19;83.54;96785.47;2069751;28;20236;-77
2022/02/24 03:04:37;;;;;;;4.28;2.40;;;;;;;4.29;83.61;96792.00;2067456;28;20218;-77
2022/02/24 03:05:38;;;;;;;6.50;1.92;;;;;;;4.30;82.78;96787.63;2069742;28;20198;-77
2022/02/24 03:06:40;;;;;;;2.40;1.60;;;;;;;4.32;83.01;96797.03;2071523;28;20198;-77
2022/02/24 03:07:41;;;;;;;4.28;2.25;;;;;;;4.29;82.80;96796.31;2071919;28;20193;-77
2022/02/24 03:08:44;;;;;;;3.97;2.40;;;;;;;4.31;82.36;96789.31;2071819;28;20201;-79
2022/02/24 03:09:45;;;;;;;8.40;2.60;;;;;;;3.93;83.84;96795.13;2070650;28;20248;-77
2022/02/24 03:10:48;;;;;;;2.45;1.60;;;;;;;3.92;83.76;96777.03;2071055;28;20209;-77
2022/02/24 03:11:50;;;;;;;3.67;2.00;;;;;;;3.96;83.94;96794.19;2071023;28;20201;-77
2022/02/24 03:12:52;;;;;;;2.70;1.95;;;;;;;3.64;85.06;96772.09;2071566;28;20209;-77
2022/02/24 03:13:53;;;;;;;4.43;2.25;;;;;;;3.87;85.22;96797.97;2071567;28;20281;-77
2022/02/24 03:14:55;;;;;;;4.18;2.15;;;;;;;3.65;85.57;96763.44;2070961;28;20225;-77
2022/02/24 03:15:56;;;;;;;3.15;1.88;;;;;;;3.93;85.38;96795.13;2071926;28;20553;-77
2022/02/24 03:16:58;;;;;;;6.00;2.13;;;;;;;4.02;85.14;96793.94;2071482;28;20201;-77
2022/02/24 03:18:00;;;;;;;2.05;1.70;;;;;;;4.11;84.81;96785.78;2070177;28;20205;-77
2022/02/24 03:19:01;;;;;;;12.20;4.15;;;;;;;4.20;84.47;96787.16;2071363;28;20202;-77
2022/02/24 03:20:03;;;;;;;7.28;1.80;;;;;;;4.06;84.38;96759.22;2070979;28;20240;-77
2022/02/24 03:21:05;;;;;;;4.07;1.58;;;;;;;4.06;84.36;96755.78;2071465;28;20194;-77
2022/02/24 03:22:08;;;;;;;3.40;1.65;;;;;;;4.18;84.23;96776.03;2071171;28;20711;-77
2022/02/24 03:23:11;;;;;;;7.20;1.95;;;;;;;4.24;84.56;96782.72;2070857;28;20198;-77
2022/02/24 03:24:12;;;;;;;5.30;2.90;;;;;;;4.20;84.16;96776.81;2071134;28;20208;-77
2022/02/24 03:25:14;;;;;;;8.50;1.83;;;;;;;4.20;84.21;96781.16;2071161;28;20249;-77
2022/02/24 03:26:15;;;;;;;6.30;2.20;;;;;;;3.95;84.06;96756.19;2071799;28;20201;-77
2022/02/24 03:27:17;;;;;;;3.00;1.67;;;;;;;4.11;84.60;96775.41;2071699;28;20206;-77
2022/02/24 03:28:19;;;;;;;3.55;1.60;;;;;;;4.20;84.50;96774.22;2071475;28;20202;-77
2022/02/24 03:29:21;;;;;;;4.38;1.80;;;;;;;4.29;83.96;96775.56;2070547;28;20202;-77
2022/02/24 03:30:23;;;;;;;2.47;1.40;;;;;;;4.34;83.71;96763.28;2071826;28;20194;-77
2022/02/24 03:31:25;;;;;;;2.55;1.52;;;;;;;4.32;83.55;96770.28;2071938;28;20198;-77
2022/02/24 03:32:29;;;;;;;2.42;1.90;;;;;;;4.16;84.18;96747.56;2070950;28;20198;-77
2022/02/24 03:33:31;;;;;;;1.52;1.10;;;;;;;3.88;84.62;96739.19;2070959;28;20205;-77
2022/02/24 03:34:33;;;;;;;2.75;1.50;;;;;;;3.99;84.71;96746.56;2071185;28;20209;-77
2022/02/24 03:35:35;;;;;;;1.83;1.17;;;;;;;4.21;84.44;96770.69;2071566;28;20202;-77
2022/02/24 03:36:38;;;;;;;4.65;1.45;;;;;;;4.10;84.28;96768.56;2071189;28;20202;-77
2022/02/24 03:37:39;;;;;;;1.50;1.20;;;;;;;4.22;83.21;96763.78;2071344;28;20256;-77
2022/02/24 03:38:41;;;;;;;2.08;1.40;;;;;;;4.06;82.63;96750.59;2071557;28;20197;-77
2022/02/24 03:39:43;;;;;;;2.83;1.65;;;;;;;4.14;82.79;96757.16;2069917;28;20221;-77
2022/02/24 03:40:44;;;;;;;1.90;1.50;;;;;;;4.22;83.33;96756.84;2070720;28;20197;-77
2022/02/24 03:41:46;;;;;;;4.07;2.15;;;;;;;4.27;83.32;96767.00;2070118;28;20249;-77
2022/02/24 03:42:48;;;;;;;3.63;1.55;;;;;;;4.22;83.20;96763.78;2070877;28;20740;-77
2022/02/24 03:43:50;;;;;;;3.70;1.70;;;;;;;4.11;83.67;96756.44;2071669;28;20209;-77
2022/02/24 03:44:52;;;;;;;3.25;1.90;;;;;;;4.14;83.90;96748.53;2070887;28;20311;-77
2022/02/24 03:45:54;;;;;;;2.83;1.75;;;;;;;4.01;83.85;96745.59;2071185;28;20202;-77
2022/02/24 03:46:56;;;;;;;4.78;2.55;;;;;;;4.10;84.32;96750.41;2071274;28;20293;-77
2022/02/24 03:48:17;;;;;;;8.73;2.63;;;;;;;4.04;84.33;96729.94;2071629;28;20197;-77
2022/02/24 03:49:19;;;;;;;5.18;1.80;;;;;;;4.12;83.88;96742.56;2071121;28;20205;-77
2022/02/24 03:50:22;;;;;;;3.55;1.52;;;;;;;4.10;83.76;96753.00;2070282;28;20197;-77
2022/02/24 03:51:24;;;;;;;3.42;1.63;;;;;;;4.00;84.02;96738.72;2072262;28;20208;-77
2022/02/24 03:52:25;;;;;;;2.75;1.27;;;;;;;4.11;84.21;96746.91;2071278;28;20186;-77
2022/02/24 03:53:27;;;;;;;3.65;1.30;;;;;;;4.13;83.92;96744.25;2070929;28;20296;-77
2022/02/24 03:54:28;;;;;;;2.45;1.67;;;;;;;4.03;83.52;96728.22;2062628;28;20257;-77
2022/02/24 03:55:30;;;;;;;2.60;1.67;;;;;;;4.06;84.24;96743.66;2070281;28;20202;-77
2022/02/24 03:56:32;;;;;;;3.15;1.80;;;;;;;4.07;84.09;96742.75;2070530;28;20679;-77
2022/02/24 03:57:35;;;;;;;1.98;1.48;;;;;;;4.10;83.84;96745.22;2071306;28;20201;-77
2022/02/24 03:58:37;;;;;;;6.20;1.65;;;;;;;3.81;84.64;96735.19;2071824;28;20200;-77
2022/02/24 03:59:38;;;;;;;3.15;2.25;;;;;;;3.83;85.39;96733.38;2070229;28;20225;-77
2022/02/24 04:00:40;;;;;;;2.40;1.70;;;;;;;4.00;84.77;96748.22;2071079;28;20235;-77
2022/02/24 04:01:42;;;;;;;4.07;2.20;;;;;;;3.94;85.28;96726.03;2070914;28;20202;-77
2022/02/24 04:02:43;;;;;;;5.15;2.22;;;;;;;3.94;84.88;96723.44;2071111;28;20214;-77
2022/02/24 04:03:45;;;;;;;3.08;1.73;;;;;;;4.04;84.95;96737.69;2069604;28;20233;-76
2022/02/24 04:04:47;;;;;;;5.75;2.15;;;;;;;3.95;84.98;96731.13;2070997;28;20226;-77
2022/02/24 04:05:49;;;;;;;2.75;1.67;;;;;;;4.04;84.86;96737.69;2071487;28;20209;-77
2022/02/24 04:06:51;;;;;;;3.42;1.55;;;;;;;4.08;84.56;96736.66;2071777;28;20594;-77
2022/02/24 04:07:54;;;;;;;4.60;1.63;;;;;;;4.04;84.89;96737.69;2071510;28;20251;-77
2022/02/24 04:08:55;;;;;;;2.75;1.50;;;;;;;4.00;85.06;96735.28;2071645;28;20198;-77
2022/02/24 04:09:57;;;;;;;3.15;1.83;;;;;;;3.93;84.93;96724.31;2069285;28;20622;-77
2022/02/24 04:10:59;;;;;;;3.92;1.50;;;;;;;4.01;84.98;96744.75;2068944;28;20198;-77
2022/02/24 04:12:01;;;;;;;5.10;1.50;;;;;;;4.00;84.77;96738.72;2071064;28;20281;-77
2022/02/24 04:13:03;;;;;;;4.10;1.75;;;;;;;3.85;84.42;96724.63;2070918;28;20198;-77
2022/02/24 04:14:06;;;;;;;3.30;1.80;;;;;;;3.95;84.38;96732.88;2070332;28;20199;-77
2022/02/24 04:15:08;;;;;;;2.35;1.42;;;;;;;3.78;84.13;96706.78;2076914;28;20853;-78
2022/02/24 04:16:09;;;;;;;5.50;2.17;;;;;;;3.94;84.14;96738.97;2076441;28;20215;-77
2022/02/24 04:17:12;;;;;;;1.92;1.48;;;;;;;3.81;84.04;96727.41;2070615;28;20251;-78
2022/02/24 04:18:13;;;;;;;6.22;1.90;;;;;;;3.69;83.62;96693.31;2071324;28;20414;-77
2022/02/24 04:19:15;;;;;;;2.80;1.67;;;;;;;3.84;84.05;96727.28;2071098;28;20236;-77
2022/02/24 04:20:17;;;;;;;2.65;1.45;;;;;;;3.73;84.31;96719.94;2069898;28;20221;-77
2022/02/24 04:21:18;;;;;;;3.67;2.05;;;;;;;3.68;84.67;96714.94;2070920;28;20225;-77
2022/02/24 04:22:20;;;;;;;3.13;1.65;;;;;;;3.52;84.60;96695.72;2070665;28;20866;-77
2022/02/24 04:23:21;;;;;;;2.47;1.70;;;;;;;3.45;85.76;96722.75;2070420;28;20201;-77
2022/02/24 04:24:25;;;;;;;2.90;1.90;;;;;;;3.55;86.05;96724.09;2070510;28;20194;-77
2022/02/24 04:25:26;;;;;;;2.50;1.55;;;;;;;3.51;85.28;96714.78;2071055;28;20251;-77
2022/02/24 04:26:28;;;;;;;1.65;1.35;;;;;;;3.51;85.37;96715.59;2071257;28;20300;-77
2022/02/24 04:27:29;;;;;;;4.93;2.08;;;;;;;3.54;85.29;96725.81;2072901;28;20202;-77
2022/02/24 04:28:31;;;;;;;7.55;1.80;;;;;;;3.42;85.34;96704.75;2072441;28;20239;-77
2022/02/24 04:29:33;;;;;;;3.22;1.95;;;;;;;3.32;85.73;96689.56;2072527;28;20619;-78
2022/02/24 04:30:34;;;;;;;3.67;1.90;;;;;;;3.52;85.64;96714.69;2073204;28;20239;-77
2022/02/24 04:31:36;;;;;;;3.58;2.05;;;;;;;3.50;85.48;96721.66;2072198;28;20280;-77
2022/02/24 04:32:38;;;;;;;3.15;2.00;;;;;;;3.60;85.54;96727.34;2072956;28;20233;-78
2022/02/24 04:33:39;;;;;;;2.75;1.92;;;;;;;3.71;85.17;96717.41;2072502;28;20197;-77
2022/02/24 04:34:41;;;;;;;2.28;1.63;;;;;;;3.80;84.17;96716.19;2063534;28;20222;-77
2022/02/24 04:35:45;;;;;;;5.95;2.03;;;;;;;3.69;84.59;96702.84;2071564;28;20236;-77
2022/02/24 04:36:46;;;;;;;5.35;1.83;;;;;;;3.63;84.99;96698.75;2072903;28;20253;-77
2022/02/24 04:37:48;;;;;;;3.35;1.70;;;;;;;3.68;85.18;96707.16;2072604;28;20202;-77
2022/02/24 04:38:50;;;;;;;2.70;1.75;;;;;;;3.78;85.11;96704.22;2071677;28;20206;-77
2022/02/24 04:39:51;;;;;;;8.68;2.28;;;;;;;3.75;85.17;96698.25;2071696;28;20818;-77
2022/02/24 04:40:53;;;;;;;4.35;2.00;;;;;;;3.79;85.53;96693.78;2072238;28;20274;-77
2022/02/24 04:41:54;;;;;;;6.70;2.30;;;;;;;3.83;85.07;96697.09;2072458;28;20248;-77
2022/02/24 04:42:56;;;;;;;7.85;1.80;;;;;;;3.78;84.54;96665.34;2072816;28;20727;-77
2022/02/24 04:43:58;;;;;;;5.13;1.80;;;;;;;3.87;84.07;96670.16;2071777;28;20714;-77
2022/02/24 04:45:00;;;;;;;6.43;2.08;;;;;;;3.99;83.92;96685.19;2071595;28;20391;-78
2022/02/24 04:46:01;;;;;;;3.30;1.67;;;;;;;4.08;83.87;96681.41;2072896;28;20255;-78
2022/02/24 04:47:03;;;;;;;6.20;1.65;;;;;;;3.96;83.00;96662.03;2072287;28;20248;-78
2022/02/24 04:48:07;;;;;;;5.25;1.73;;;;;;;3.92;82.74;96657.84;2071343;28;20335;-78
2022/02/24 04:49:09;;;;;;;5.22;1.88;;;;;;;3.96;82.61;96667.19;2072377;28;20210;-78
2022/02/24 04:50:10;;;;;;;2.35;1.63;;;;;;;3.96;82.69;96672.38;2070500;28;20308;-77
2022/02/24 04:51:12;;;;;;;2.60;1.50;;;;;;;3.86;82.96;96660.69;2072868;28;20263;-77
2022/02/24 04:52:14;;;;;;;3.58;1.70;;;;;;;3.92;83.81;96684.63;2069568;28;20285;-77
2022/02/24 04:53:16;;;;;;;2.85;1.63;;;;;;;3.85;83.87;96664.19;2072773;28;20324;-77
2022/02/24 04:54:17;;;;;;;7.57;2.65;;;;;;;3.69;83.68;96656.22;2072496;28;20540;-77
2022/02/24 04:55:19;;;;;;;4.35;2.25;;;;;;;3.79;83.78;96678.25;2071695;28;20239;-77